Time;durP1;ratioP1;P1;durP2;ratioP2;P2;SDS_P1;SDS_P2;PMS_P1;PMS_P2;Temp;Humidity;BMP_temperature;BMP_pressure;BME280_temperature;BME280_humidity;BME280_pressure;Samples;Min_cycle;Max_cycle;Signal;HPM_P1;HPM_P2
2023/05/15 00:01:40;;;;;;;10.20;8.00;;;;;;;15.35;59.92;100845.58;107890;1259;71559;-90
2023/05/15 00:04:06;;;;;;;9.20;8.30;;;;;;;15.33;59.81;100845.53;108296;1259;73527;-90
2023/05/15 00:06:34;;;;;;;11.90;8.60;;;;;;;15.31;59.71;100847.02;108127;1259;62453;-89
2023/05/15 00:09:01;;;;;;;9.50;8.30;;;;;;;15.28;59.70;100848.75;107880;1261;62308;-89
2023/05/15 00:11:28;;;;;;;10.70;8.90;;;;;;;15.26;59.62;100849.89;107559;1266;74989;-88
2023/05/15 00:13:55;;;;;;;12.10;8.70;;;;;;;15.22;59.58;100844.91;107778;1259;71856;-90
2023/05/15 00:16:23;;;;;;;10.50;8.30;;;;;;;15.19;59.88;100841.91;107659;1263;74224;-90
2023/05/15 00:18:50;;;;;;;10.40;8.50;;;;;;;15.17;60.00;100839.63;107757;1264;64037;-90
2023/05/15 00:21:18;;;;;;;11.50;8.90;;;;;;;15.14;59.93;100842.88;107584;1259;61309;-90
2023/05/15 00:23:46;;;;;;;10.40;8.50;;;;;;;15.08;60.09;100841.36;107611;1259;74970;-90
2023/05/15 00:26:14;;;;;;;10.00;8.70;;;;;;;14.99;60.19;100842.70;107655;1259;73688;-89
2023/05/15 00:28:41;;;;;;;9.50;8.50;;;;;;;14.91;60.44;100841.75;107561;1259;72798;-88
2023/05/15 00:31:09;;;;;;;12.00;8.90;;;;;;;14.83;60.62;100840.45;107579;1260;61269;-88
2023/05/15 00:33:37;;;;;;;9.50;8.40;;;;;;;14.74;60.92;100844.85;107626;1260;61075;-88
2023/05/15 00:36:04;;;;;;;10.80;8.40;;;;;;;14.64;61.21;100844.09;107708;1259;74853;-87
2023/05/15 00:38:32;;;;;;;9.10;7.70;;;;;;;14.59;61.54;100842.63;107724;1259;74907;-87
2023/05/15 00:41:00;;;;;;;10.50;8.40;;;;;;;14.60;61.61;100846.80;107639;1259;74896;-89
2023/05/15 00:43:27;;;;;;;9.40;8.40;;;;;;;14.60;61.59;100844.92;107668;1259;64276;-87
2023/05/15 00:45:54;;;;;;;9.70;8.50;;;;;;;14.58;61.63;100841.71;107626;1259;62674;-90
2023/05/15 00:48:21;;;;;;;10.10;8.60;;;;;;;14.55;61.60;100842.27;107543;1260;73687;-90
2023/05/15 00:50:50;;;;;;;9.40;7.70;;;;;;;14.53;61.78;100841.04;107606;1259;73621;-89
2023/05/15 00:53:17;;;;;;;10.50;8.40;;;;;;;14.49;62.09;100846.64;107574;1259;72312;-89
2023/05/15 00:55:45;;;;;;;11.60;9.10;;;;;;;14.43;62.28;100844.18;107738;1259;61228;-89
2023/05/15 00:58:13;;;;;;;10.50;9.40;;;;;;;14.42;62.70;100845.95;107649;1260;61268;-91
2023/05/15 01:00:43;;;;;;;13.90;9.00;;;;;;;14.42;63.11;100842.98;107692;1259;75017;-90
2023/05/15 01:03:10;;;;;;;10.60;8.70;;;;;;;14.37;63.37;100837.38;107586;1260;75245;-90
2023/05/15 01:05:38;;;;;;;10.90;8.90;;;;;;;14.32;63.58;100834.70;107657;1260;74088;-89
2023/05/15 01:08:20;;;;;;;10.30;8.60;;;;;;;14.33;63.66;100832.34;107616;1260;64031;-90
2023/05/15 01:10:49;;;;;;;9.20;8.20;;;;;;;14.36;63.58;100829.16;107632;1260;61172;-90
2023/05/15 01:13:21;;;;;;;9.90;8.80;;;;;;;14.33;63.51;100835.98;107578;1265;75622;-90
2023/05/15 01:15:48;;;;;;;9.50;7.90;;;;;;;14.24;63.57;100836.40;107558;1259;73986;-90
2023/05/15 01:18:16;;;;;;;10.50;8.30;;;;;;;14.10;63.82;100840.10;107698;1260;72088;-90
2023/05/15 01:21:05;;;;;;;9.60;8.20;;;;;;;13.95;63.99;100837.34;107781;1260;62466;-92
2023/05/15 01:24:15;;;;;;;10.60;8.30;;;;;;;13.82;64.14;100837.85;107725;1260;60427;-89
2023/05/15 01:27:19;;;;;;;9.60;8.20;;;;;;;13.70;64.29;100835.30;107661;1259;75358;-89
2023/05/15 01:29:55;;;;;;;10.00;8.90;;;;;;;13.59;64.64;100833.11;107745;1261;73682;-90
2023/05/15 01:32:27;;;;;;;10.10;8.60;;;;;;;13.54;64.75;100834.67;107698;1261;72869;-91
2023/05/15 01:35:04;;;;;;;10.70;8.30;;;;;;;13.55;64.86;100836.11;107689;1265;63134;-88
2023/05/15 01:37:31;;;;;;;8.80;7.60;;;;;;;13.57;64.90;100833.75;107668;1259;61055;-89
2023/05/15 01:40:02;;;;;;;9.50;8.10;;;;;;;13.60;64.94;100831.82;107633;1260;75057;-91
2023/05/15 01:42:35;;;;;;;9.00;8.10;;;;;;;13.63;64.96;100830.52;107570;1260;71572;-89
2023/05/15 01:45:04;;;;;;;9.60;8.20;;;;;;;13.65;64.91;100831.11;107574;1265;72475;-90
2023/05/15 01:47:40;;;;;;;11.10;8.90;;;;;;;13.63;64.96;100831.23;107535;1261;60107;-89
2023/05/15 01:50:09;;;;;;;8.80;7.90;;;;;;;13.64;65.09;100831.23;107747;1261;62343;-89
2023/05/15 01:52:39;;;;;;;9.70;8.70;;;;;;;13.66;64.97;100832.36;107737;1264;75726;-91
2023/05/15 01:55:06;;;;;;;11.70;9.10;;;;;;;13.67;64.93;100834.86;107744;1264;72269;-89
2023/05/15 01:57:34;;;;;;;11.50;9.30;;;;;;;13.67;64.96;100839.54;107692;1259;70703;-90
2023/05/15 02:00:01;;;;;;;10.10;9.10;;;;;;;13.68;64.98;100832.17;107666;1265;61225;-91
2023/05/15 02:02:48;;;;;;;11.40;10.20;;;;;;;13.66;64.93;100829.77;107656;1259;62354;-90
2023/05/15 02:05:17;;;;;;;12.20;10.50;;;;;;;13.61;64.91;100826.84;107727;1264;75890;-90
2023/05/15 02:07:45;;;;;;;11.70;10.30;;;;;;;13.58;65.23;100827.69;107620;1264;71997;-89
2023/05/15 02:10:14;;;;;;;10.20;8.60;;;;;;;13.58;65.55;100830.27;107627;1265;74707;-89
2023/05/15 02:12:45;;;;;;;11.20;10.20;;;;;;;13.51;65.72;100832.73;107736;1259;61267;-89
2023/05/15 02:15:12;;;;;;;10.80;9.50;;;;;;;13.44;65.97;100832.80;107582;1259;60069;-89
2023/05/15 02:17:40;;;;;;;12.70;10.00;;;;;;;13.45;66.12;100829.85;107687;1259;74527;-89
2023/05/15 02:20:07;;;;;;;10.80;9.70;;;;;;;13.49;66.17;100824.27;107661;1265;71564;-89
2023/05/15 02:22:36;;;;;;;10.60;9.50;;;;;;;13.53;66.08;100823.45;107572;1262;75348;-91
2023/05/15 02:25:04;;;;;;;10.10;8.60;;;;;;;13.54;66.08;100824.26;107619;1265;62934;-90
2023/05/15 02:27:59;;;;;;;10.10;9.10;;;;;;;13.48;66.16;100824.86;107801;1260;61156;-89
2023/05/15 02:30:44;;;;;;;11.50;9.90;;;;;;;13.42;66.51;100828.94;107751;1261;73779;-91
2023/05/15 02:33:20;;;;;;;11.50;9.80;;;;;;;13.42;66.77;100823.52;107824;1260;72399;-89
2023/05/15 02:35:55;;;;;;;11.60;10.40;;;;;;;13.49;66.90;100822.66;108591;1259;74094;-89
2023/05/15 02:38:28;;;;;;;10.60;9.60;;;;;;;13.54;66.89;100823.40;108646;1264;62906;-90
2023/05/15 02:40:56;;;;;;;9.40;8.50;;;;;;;13.59;66.96;100824.57;108496;1259;60219;-89
2023/05/15 02:43:24;;;;;;;10.10;9.10;;;;;;;13.67;67.04;100828.33;108411;1259;75772;-89
2023/05/15 02:45:52;;;;;;;10.40;9.30;;;;;;;13.74;66.91;100827.51;108566;1265;71404;-88
2023/05/15 02:48:19;;;;;;;11.40;9.90;;;;;;;13.82;66.95;100827.27;108514;1266;71392;-90
2023/05/15 02:50:46;;;;;;;12.10;9.50;;;;;;;13.88;66.75;100828.50;108631;1259;59887;-89
2023/05/15 02:53:14;;;;;;;10.70;9.60;;;;;;;13.93;66.68;100827.52;108082;1260;61154;-89
2023/05/15 02:55:42;;;;;;;12.90;9.90;;;;;;;13.98;66.66;100825.89;108543;1259;73455;-88
2023/05/15 02:58:09;;;;;;;11.50;9.50;;;;;;;14.01;66.87;100825.73;108568;1261;71406;-89
2023/05/15 03:00:36;;;;;;;11.10;9.90;;;;;;;14.10;67.01;100824.20;108585;1260;71422;-88
2023/05/15 03:03:03;;;;;;;11.10;9.90;;;;;;;14.17;67.28;100819.65;108666;1259;63170;-89
2023/05/15 03:05:30;;;;;;;11.00;9.90;;;;;;;14.24;67.57;100817.32;108579;1259;59491;-88
2023/05/15 03:07:59;;;;;;;11.70;10.50;;;;;;;14.34;68.03;100820.35;108178;1260;74059;-90
2023/05/15 03:10:27;;;;;;;11.90;10.20;;;;;;;14.43;68.14;100823.31;107650;1266;73836;-88
2023/05/15 03:12:57;;;;;;;11.70;9.80;;;;;;;14.53;68.17;100822.75;107634;1267;71752;-88
2023/05/15 03:15:24;;;;;;;12.00;9.80;;;;;;;14.62;68.21;100823.14;107798;1261;61261;-90
2023/05/15 03:17:52;;;;;;;11.60;10.30;;;;;;;14.70;68.33;100820.58;107607;1260;61151;-89
2023/05/15 03:20:19;;;;;;;10.90;9.80;;;;;;;14.81;68.32;100819.70;107758;1261;75784;-90
2023/05/15 03:22:46;;;;;;;10.60;9.50;;;;;;;14.91;68.32;100817.76;107668;1261;71957;-91
2023/05/15 03:25:14;;;;;;;11.30;9.10;;;;;;;14.93;68.37;100814.95;107615;1267;75028;-90
2023/05/15 03:27:44;;;;;;;13.20;10.20;;;;;;;14.89;68.13;100817.88;107587;1261;64319;-88
2023/05/15 03:30:12;;;;;;;11.60;10.20;;;;;;;14.88;68.07;100820.79;107687;1261;61848;-91
2023/05/15 03:32:39;;;;;;;15.50;11.80;;;;;;;14.90;68.08;100816.95;107614;1265;74728;-89
2023/05/15 03:35:07;;;;;;;14.80;13.20;;;;;;;14.95;68.00;100815.78;107679;1265;75117;-91
2023/05/15 03:37:34;;;;;;;15.90;13.10;;;;;;;15.03;67.86;100819.34;107618;1261;73569;-91
2023/05/15 03:40:02;;;;;;;15.40;13.30;;;;;;;15.14;67.90;100822.75;107706;1260;61848;-90
2023/05/15 03:42:29;;;;;;;14.80;13.30;;;;;;;15.27;67.81;100824.48;107763;1261;61193;-90
2023/05/15 03:44:56;;;;;;;14.10;12.70;;;;;;;15.41;67.70;100824.69;107693;1266;74712;-91
2023/05/15 03:47:25;;;;;;;13.40;12.00;;;;;;;15.54;67.57;100827.74;107633;1259;74125;-90
2023/05/15 03:49:52;;;;;;;14.00;11.80;;;;;;;15.68;67.56;100826.02;107689;1261;73380;-90
2023/05/15 03:52:19;;;;;;;12.40;10.70;;;;;;;15.80;67.39;100828.92;107683;1261;61337;-90
2023/05/15 03:54:46;;;;;;;11.50;10.30;;;;;;;15.93;67.27;100830.04;107701;1263;61257;-90
2023/05/15 03:57:13;;;;;;;12.10;10.90;;;;;;;16.04;67.15;100829.16;107575;1259;74188;-91
2023/05/15 03:59:40;;;;;;;11.90;10.70;;;;;;;16.13;67.04;100822.27;107609;1260;71850;-91
2023/05/15 04:02:08;;;;;;;11.60;10.50;;;;;;;16.22;67.12;100824.69;107581;1260;74838;-90
2023/05/15 04:04:36;;;;;;;13.80;12.40;;;;;;;16.31;67.14;100825.39;107675;1261;61650;-89
2023/05/15 04:07:04;;;;;;;13.50;12.10;;;;;;;16.40;67.37;100826.52;107675;1263;61351;-90
2023/05/15 04:09:31;;;;;;;16.30;13.20;;;;;;;16.49;67.36;100827.91;107609;1266;77067;-90
2023/05/15 04:11:58;;;;;;;15.50;13.90;;;;;;;16.61;67.47;100826.20;107727;1260;71593;-88
2023/05/15 04:14:25;;;;;;;13.70;12.30;;;;;;;16.74;67.45;100827.85;107621;1265;74469;-89
2023/05/15 04:16:52;;;;;;;15.20;12.50;;;;;;;16.86;67.40;100825.88;107579;1260;61277;-89
2023/05/15 04:19:20;;;;;;;14.00;12.60;;;;;;;16.97;67.37;100829.98;107619;1260;61182;-89
2023/05/15 04:21:47;;;;;;;14.80;12.90;;;;;;;17.09;67.21;100831.40;107582;1261;76636;-90
2023/05/15 04:24:14;;;;;;;16.00;13.20;;;;;;;17.21;67.01;100828.53;107734;1260;74299;-91
2023/05/15 04:26:42;;;;;;;14.80;13.00;;;;;;;17.31;66.69;100829.65;107534;1260;73835;-91
2023/05/15 04:29:09;;;;;;;18.40;14.10;;;;;;;17.44;66.49;100829.98;107508;1261;63876;-89
2023/05/15 04:31:37;;;;;;;15.10;13.50;;;;;;;17.62;66.35;100831.03;107593;1260;61213;-89
2023/05/15 04:34:05;;;;;;;16.20;14.50;;;;;;;17.79;66.02;100829.83;107535;1260;73023;-90
2023/05/15 04:36:32;;;;;;;15.20;13.60;;;;;;;17.96;65.71;100828.10;107556;1259;73852;-90
2023/05/15 04:39:00;;;;;;;15.80;13.90;;;;;;;18.10;65.46;100826.15;107522;1260;73139;-89
2023/05/15 04:41:27;;;;;;;16.30;13.70;;;;;;;18.26;65.13;100823.23;107520;1259;64470;-90
2023/05/15 04:43:54;;;;;;;15.60;13.00;;;;;;;18.39;64.69;100818.36;107720;1259;61168;-90
2023/05/15 04:46:22;;;;;;;14.50;13.00;;;;;;;18.52;64.20;100813.87;107522;1260;76142;-91
2023/05/15 04:48:49;;;;;;;16.30;12.80;;;;;;;18.64;63.69;100816.38;107581;1260;75195;-91
2023/05/15 04:51:16;;;;;;;15.20;11.30;;;;;;;18.75;63.17;100814.91;107451;1264;75083;-91
2023/05/15 04:53:44;;;;;;;13.50;12.00;;;;;;;18.85;62.78;100815.66;107538;1260;61211;-90
2023/05/15 04:56:12;;;;;;;13.40;12.00;;;;;;;18.96;62.60;100813.51;107628;1261;61290;-90
2023/05/15 04:58:39;;;;;;;13.60;11.90;;;;;;;19.09;62.10;100814.25;107610;1260;75748;-91
2023/05/15 05:01:07;;;;;;;13.50;11.30;;;;;;;19.23;61.77;100812.98;107672;1260;72838;-90
2023/05/15 05:03:34;;;;;;;13.70;12.30;;;;;;;19.37;61.39;100809.15;107656;1264;73548;-88
2023/05/15 05:06:01;;;;;;;14.40;11.80;;;;;;;19.52;60.94;100809.59;107739;1259;64305;-92
2023/05/15 05:08:28;;;;;;;12.50;11.10;;;;;;;19.68;60.61;100808.27;107666;1264;61226;-91
2023/05/15 05:10:58;;;;;;;14.20;12.30;;;;;;;19.81;60.34;100806.07;107681;1261;74481;-90
2023/05/15 05:13:26;;;;;;;17.70;12.20;;;;;;;19.98;59.91;100802.64;107633;1264;74793;-91
2023/05/15 05:15:53;;;;;;;13.20;11.70;;;;;;;20.15;59.44;100804.05;107598;1259;74701;-91
2023/05/15 05:18:21;;;;;;;13.60;12.20;;;;;;;20.31;58.70;100801.09;107702;1260;63027;-90
2023/05/15 05:20:49;;;;;;;15.60;11.80;;;;;;;20.46;58.17;100797.60;107684;1260;61181;-90
2023/05/15 05:23:18;;;;;;;16.40;12.10;;;;;;;20.61;57.74;100795.70;107841;1260;75402;-89
2023/05/15 05:25:45;;;;;;;15.50;12.00;;;;;;;20.76;57.13;100790.30;107752;1261;71969;-89
2023/05/15 05:28:12;;;;;;;12.20;11.00;;;;;;;20.88;56.35;100793.30;108295;1260;73158;-89
2023/05/15 05:30:39;;;;;;;12.80;11.50;;;;;;;20.97;55.43;100795.66;108916;1259;59838;-87
2023/05/15 05:33:06;;;;;;;13.10;11.40;;;;;;;21.09;55.16;100793.46;108935;1260;60469;-89
2023/05/15 05:35:33;;;;;;;12.00;10.70;;;;;;;21.22;54.61;100796.42;108904;1264;74921;-83
2023/05/15 05:38:00;;;;;;;14.90;11.60;;;;;;;21.36;53.71;100794.94;108047;1260;71913;-90
2023/05/15 05:40:28;;;;;;;11.00;9.70;;;;;;;21.50;53.20;100793.05;107727;1261;75049;-90
2023/05/15 05:43:02;;;;;;;11.60;9.80;;;;;;;21.65;52.51;100793.35;107691;1261;62248;-90
2023/05/15 05:45:30;;;;;;;10.10;9.00;;;;;;;21.79;52.00;100789.66;107712;1260;61103;-90
2023/05/15 05:47:57;;;;;;;9.80;8.50;;;;;;;21.93;51.76;100787.17;107690;1260;74830;-89
2023/05/15 05:50:25;;;;;;;12.40;8.60;;;;;;;22.07;50.73;100782.60;107721;1260;74204;-90
2023/05/15 05:52:52;;;;;;;8.70;7.80;;;;;;;22.22;50.30;100784.14;107659;1261;72721;-91
2023/05/15 05:55:19;;;;;;;10.80;8.30;;;;;;;22.38;50.36;100785.29;107658;1260;61219;-90
2023/05/15 05:57:46;;;;;;;10.10;7.80;;;;;;;22.52;49.55;100787.71;107731;1264;61145;-91
2023/05/15 06:00:14;;;;;;;9.20;8.00;;;;;;;22.63;48.27;100784.45;107705;1260;75173;-87
2023/05/15 06:02:41;;;;;;;9.50;7.90;;;;;;;22.71;48.36;100785.06;107729;1260;73063;-87
2023/05/15 06:05:09;;;;;;;10.50;7.70;;;;;;;22.81;48.27;100784.47;107568;1261;73633;-88
2023/05/15 06:07:36;;;;;;;11.30;8.10;;;;;;;22.92;48.31;100786.91;107582;1260;62505;-87
2023/05/15 06:10:03;;;;;;;9.50;8.00;;;;;;;23.01;48.37;100784.52;107701;1260;62932;-87
2023/05/15 06:12:30;;;;;;;10.30;8.20;;;;;;;23.10;47.83;100781.12;107549;1261;75195;-87
2023/05/15 06:14:57;;;;;;;11.00;8.00;;;;;;;23.18;47.74;100784.59;107763;1260;73153;-88
2023/05/15 06:17:25;;;;;;;9.30;7.10;;;;;;;23.29;47.33;100785.83;107576;1260;72902;-89
2023/05/15 06:19:53;;;;;;;8.60;7.00;;;;;;;23.40;46.67;100784.61;107547;1260;61241;-89
2023/05/15 06:22:31;;;;;;;8.70;7.30;;;;;;;23.49;45.83;100785.70;98547;1260;10001634;-93
2023/05/15 06:24:58;;;;;;;8.10;6.30;;;;;;;23.59;44.65;100777.91;92625;1259;10002327;-91
2023/05/15 06:27:26;;;;;;;9.00;6.50;;;;;;;23.62;43.88;100777.03;107601;1259;61297;-91
2023/05/15 06:29:53;;;;;;;7.30;5.90;;;;;;;23.68;43.65;100780.50;107687;1259;77020;-90
2023/05/15 06:32:20;;;;;;;6.80;6.00;;;;;;;23.76;42.85;100778.69;107599;1260;73899;-89
2023/05/15 06:34:47;;;;;;;8.90;5.80;;;;;;;23.85;42.24;100781.84;107675;1258;72744;-90
2023/05/15 06:37:15;;;;;;;7.00;4.00;;;;;;;23.96;40.93;100774.01;107532;1260;61670;-88
2023/05/15 06:39:42;;;;;;;5.20;4.00;;;;;;;24.06;38.68;100774.08;107508;1264;61225;-89
2023/05/15 06:42:09;;;;;;;6.00;4.60;;;;;;;24.18;37.46;100768.67;107540;1260;74484;-90
2023/05/15 06:44:36;;;;;;;4.80;4.00;;;;;;;24.30;36.57;100763.64;107526;1260;73375;-90
2023/05/15 06:47:04;;;;;;;5.40;3.90;;;;;;;24.42;36.41;100764.41;107443;1265;74824;-89
2023/05/15 06:49:32;;;;;;;5.80;4.30;;;;;;;24.54;36.20;100764.61;107681;1261;61234;-90
2023/05/15 06:51:59;;;;;;;5.70;3.50;;;;;;;24.66;35.36;100762.36;107709;1259;62505;-93
2023/05/15 06:54:26;;;;;;;5.20;3.40;;;;;;;24.76;34.63;100759.93;107561;1260;76711;-89
2023/05/15 06:56:54;;;;;;;6.00;3.50;;;;;;;24.86;33.44;100757.01;107713;1260;72528;-88
2023/05/15 06:59:34;;;;;;;5.40;3.20;;;;;;;24.95;32.43;100756.92;107629;1260;70421;-88
2023/05/15 07:02:02;;;;;;;6.20;3.30;;;;;;;24.99;31.41;100751.88;107521;1261;59893;-87
2023/05/15 07:04:32;;;;;;;5.70;3.40;;;;;;;24.99;31.09;100751.57;107507;1259;61048;-90
2023/05/15 07:06:59;;;;;;;6.20;3.80;;;;;;;24.98;30.44;100750.16;107522;1260;75163;-88
2023/05/15 07:09:28;;;;;;;6.60;3.90;;;;;;;24.99;30.68;100748.59;107611;1259;71286;-90
2023/05/15 07:11:55;;;;;;;6.50;3.80;;;;;;;25.05;30.48;100750.63;107642;1260;72184;-89
2023/05/15 07:14:23;;;;;;;5.20;3.60;;;;;;;25.12;30.58;100754.20;107589;1260;61300;-89
2023/05/15 07:16:50;;;;;;;4.20;3.40;;;;;;;25.25;31.08;100749.77;107716;1260;61086;-90
2023/05/15 07:19:20;;;;;;;8.30;3.40;;;;;;;25.43;30.14;100746.71;107636;1259;75511;-90
2023/05/15 07:39:06;;;;;;;7.10;3.70;;;;;;;25.92;27.60;100733.77;98396;1285;10002528;-91
2023/05/15 07:41:33;;;;;;;5.30;3.20;;;;;;;26.92;25.68;100733.92;107326;1264;135439;-93
2023/05/15 07:44:00;;;;;;;5.20;3.20;;;;;;;27.06;25.62;100732.15;107524;1269;59537;-92
2023/05/15 07:46:27;;;;;;;6.80;3.40;;;;;;;27.16;24.36;100727.59;107540;1269;59435;-92
2023/05/15 07:48:54;;;;;;;5.20;3.00;;;;;;;27.21;24.42;100726.72;107552;1264;75143;-92
2023/05/15 07:51:22;;;;;;;5.30;3.30;;;;;;;27.30;25.28;100725.31;107465;1264;61477;-92
2023/05/15 07:53:53;;;;;;;5.30;3.10;;;;;;;27.42;24.40;100725.04;107365;1267;60057;-92
2023/05/15 07:56:20;;;;;;;7.40;3.20;;;;;;;27.45;24.35;100719.77;108009;1257;72750;-92
2023/05/15 07:58:47;;;;;;;5.30;3.20;;;;;;;27.47;24.26;100714.93;108142;1254;73878;-90
2023/05/15 08:01:15;;;;;;;5.10;3.30;;;;;;;27.53;24.66;100715.63;108116;1258;73656;-92
2023/05/15 08:03:48;;;;;;;7.40;3.00;;;;;;;27.61;24.67;100712.08;107944;1262;61536;-91
2023/05/15 13:22:29;;;;;;;5.30;2.50;;;;;;;29.94;19.39;100505.06;106003;1280;605552;-89
2023/05/15 13:24:57;;;;;;;4.30;2.40;;;;;;;31.73;17.10;100499.65;107531;1270;139759;-93
2023/05/15 13:27:26;;;;;;;4.80;2.30;;;;;;;31.80;17.37;100499.84;107843;1263;59022;-92
2023/05/15 13:29:55;;;;;;;4.00;2.10;;;;;;;31.93;17.21;100500.50;108004;1269;65791;-93
2023/05/15 13:32:22;;;;;;;4.10;2.60;;;;;;;32.01;17.02;100505.19;108465;1264;65041;-92
2023/05/15 13:35:03;;;;;;;4.30;2.40;;;;;;;31.99;16.83;100504.26;108232;1264;63910;-84
2023/05/15 13:37:32;;;;;;;4.60;2.00;;;;;;;31.91;16.94;100501.46;107645;1269;59391;-86
2023/05/15 13:39:59;;;;;;;3.50;1.80;;;;;;;31.78;16.93;100495.98;107607;1264;59477;-87
2023/05/15 13:42:26;;;;;;;4.20;2.20;;;;;;;31.62;16.91;100495.13;107586;1264;64523;-84
2023/05/15 13:44:53;;;;;;;3.40;2.00;;;;;;;31.45;17.22;100494.27;108033;1258;64779;-84
2023/05/15 13:47:20;;;;;;;4.60;2.00;;;;;;;31.35;17.37;100492.48;108012;1263;64180;-84
2023/05/15 13:49:47;;;;;;;2.60;1.90;;;;;;;31.30;16.92;100490.75;108114;1258;59515;-85
2023/05/15 13:52:14;;;;;;;3.90;2.30;;;;;;;31.36;17.10;100493.11;108152;1257;60171;-84
2023/05/15 13:54:41;;;;;;;2.90;1.90;;;;;;;31.45;17.32;100488.35;108201;1257;64352;-84
2023/05/15 13:57:09;;;;;;;5.10;2.30;;;;;;;31.48;17.45;100483.99;108082;1258;64283;-84
2023/05/15 13:59:36;;;;;;;4.30;1.90;;;;;;;31.42;17.26;100482.52;108082;1257;63896;-84
2023/05/15 14:02:03;;;;;;;4.10;2.20;;;;;;;31.38;17.09;100479.14;108033;1257;59404;-83
2023/05/15 14:04:30;;;;;;;3.70;2.10;;;;;;;31.38;17.03;100474.89;108029;1258;59694;-85
2023/05/15 14:06:57;;;;;;;6.10;2.20;;;;;;;31.40;17.13;100471.27;108030;1257;65718;-85
2023/05/15 14:09:26;;;;;;;3.50;2.10;;;;;;;31.53;17.27;100473.40;108077;1258;64958;-85
2023/05/15 14:11:54;;;;;;;4.30;2.20;;;;;;;31.79;17.13;100475.86;108037;1262;65659;-85
2023/05/15 14:14:22;;;;;;;4.00;2.20;;;;;;;32.02;17.03;100475.73;108005;1257;59502;-86
2023/05/15 14:16:49;;;;;;;4.50;2.10;;;;;;;32.39;17.05;100471.11;107968;1262;59748;-84
2023/05/15 14:19:16;;;;;;;3.50;2.10;;;;;;;32.90;16.72;100466.70;107859;1257;74277;-85
2023/05/15 14:21:43;;;;;;;3.90;2.10;;;;;;;33.31;16.02;100461.95;107920;1262;65071;-85
2023/05/15 14:24:10;;;;;;;4.90;2.00;;;;;;;33.75;15.65;100456.86;107951;1260;63349;-84
2023/05/15 14:26:37;;;;;;;3.00;1.90;;;;;;;34.18;15.20;100459.71;107902;1260;59483;-85
2023/05/15 14:29:05;;;;;;;4.00;1.70;;;;;;;34.54;15.15;100457.20;107848;1263;59946;-85
2023/05/15 14:31:32;;;;;;;6.20;2.20;;;;;;;34.87;14.89;100461.44;107947;1261;65737;-85
2023/05/15 14:34:00;;;;;;;3.20;1.90;;;;;;;35.15;14.50;100458.14;107958;1259;64879;-84
2023/05/15 14:36:27;;;;;;;3.90;2.00;;;;;;;35.38;14.17;100458.37;107989;1258;65071;-84
2023/05/15 14:38:54;;;;;;;2.90;1.80;;;;;;;35.59;14.01;100463.08;108102;1260;59352;-83
2023/05/15 14:41:21;;;;;;;3.70;1.90;;;;;;;35.80;13.87;100460.88;108123;1257;59612;-85
2023/05/15 14:43:50;;;;;;;3.10;1.90;;;;;;;35.93;13.76;100454.52;108124;1258;64184;-84
2023/05/15 14:46:17;;;;;;;3.90;2.20;;;;;;;36.02;13.61;100453.05;108155;1258;64866;-85
2023/05/15 14:48:45;;;;;;;3.50;2.20;;;;;;;36.04;13.71;100456.67;108124;1257;64078;-84
2023/05/15 14:51:12;;;;;;;3.60;2.30;;;;;;;36.03;13.40;100451.35;108107;1260;59582;-84
2023/05/15 14:53:38;;;;;;;4.70;2.00;;;;;;;36.03;13.60;100451.13;108163;1257;59599;-85
2023/05/15 14:56:05;;;;;;;3.60;2.20;;;;;;;36.04;14.02;100450.22;108076;1257;64187;-83
2023/05/15 14:58:32;;;;;;;6.10;2.30;;;;;;;36.05;14.15;100451.25;108072;1257;65055;-83
2023/05/15 15:01:00;;;;;;;3.20;2.00;;;;;;;36.01;14.35;100446.19;107986;1258;64979;-84
2023/05/15 15:03:28;;;;;;;3.60;2.10;;;;;;;35.87;14.11;100440.37;107940;1257;59546;-85
2023/05/15 15:05:57;;;;;;;3.10;1.70;;;;;;;35.63;14.24;100439.58;108137;1257;59401;-85
2023/05/15 15:08:24;;;;;;;6.00;2.10;;;;;;;35.39;14.49;100433.98;108170;1258;65384;-85
2023/05/15 15:10:51;;;;;;;3.10;1.90;;;;;;;35.18;14.80;100430.70;108123;1257;64973;-84
2023/05/15 15:13:18;;;;;;;5.90;2.10;;;;;;;35.01;15.05;100427.95;108114;1258;65251;-85
2023/05/15 15:15:45;;;;;;;3.30;1.90;;;;;;;34.84;15.16;100430.20;108061;1257;59554;-85
2023/05/15 15:18:12;;;;;;;5.40;1.90;;;;;;;34.61;15.06;100428.08;108047;1256;59574;-84
2023/05/15 15:20:40;;;;;;;5.20;1.90;;;;;;;34.42;15.40;100426.66;108029;1258;64560;-86
2023/05/15 15:23:06;;;;;;;5.50;2.00;;;;;;;34.30;15.47;100423.87;108046;1260;65157;-84
2023/05/15 15:25:34;;;;;;;4.60;1.80;;;;;;;34.09;15.54;100418.04;108047;1258;65061;-85
2023/05/15 15:28:01;;;;;;;6.20;1.90;;;;;;;33.80;15.65;100419.59;108044;1257;59514;-85
2023/05/15 15:30:30;;;;;;;4.70;2.00;;;;;;;33.51;15.96;100419.77;108004;1260;60776;-84
2023/05/15 15:32:57;;;;;;;4.20;1.90;;;;;;;33.20;16.24;100423.66;108203;1254;65183;-84
2023/05/15 15:35:28;;;;;;;3.20;1.90;;;;;;;32.95;16.65;100426.00;108171;1254;64975;-85
2023/05/15 15:37:55;;;;;;;4.50;1.90;;;;;;;32.75;17.30;100422.90;108213;1254;65057;-84
2023/05/15 15:40:22;;;;;;;5.60;2.10;;;;;;;32.46;17.50;100421.94;108175;1257;59650;-84
2023/05/15 15:42:50;;;;;;;3.30;1.90;;;;;;;32.04;18.23;100425.20;108193;1254;59185;-85
2023/05/15 15:45:17;;;;;;;5.10;2.20;;;;;;;31.64;19.01;100428.30;108178;1254;64476;-84
2023/05/15 15:47:44;;;;;;;3.70;2.10;;;;;;;31.29;19.36;100428.55;108187;1254;71659;-85
2023/05/15 15:50:11;;;;;;;2.60;1.80;;;;;;;31.05;19.63;100428.80;108181;1254;64904;-85
2023/05/15 15:52:38;;;;;;;4.00;2.10;;;;;;;30.88;20.07;100429.49;108190;1257;59332;-85
2023/05/15 15:55:06;;;;;;;4.00;2.00;;;;;;;30.68;20.33;100429.13;108184;1254;59592;-84
2023/05/15 15:57:33;;;;;;;3.10;2.20;;;;;;;30.52;20.62;100425.44;108200;1254;65287;-84
2023/05/15 16:00:02;;;;;;;4.00;2.00;;;;;;;30.30;20.99;100421.29;108207;1254;63961;-85
2023/05/15 16:02:32;;;;;;;4.70;2.00;;;;;;;30.09;21.21;100423.17;108156;1254;64004;-86
2023/05/15 16:05:00;;;;;;;5.20;2.50;;;;;;;29.95;20.98;100426.53;108183;1254;59579;-85
2023/05/15 16:07:27;;;;;;;4.60;2.20;;;;;;;29.89;21.17;100427.23;108204;1254;59554;-83
2023/05/15 16:09:54;;;;;;;4.40;2.50;;;;;;;29.86;21.27;100426.68;108192;1254;74239;-84
2023/05/15 16:12:38;;;;;;;4.70;2.40;;;;;;;29.87;21.26;100423.22;108185;1254;73584;-85
2023/05/15 16:15:06;;;;;;;4.70;2.30;;;;;;;29.83;21.43;100422.12;108172;1254;65259;-85
2023/05/15 16:17:52;;;;;;;6.30;2.30;;;;;;;29.78;21.39;100425.33;108194;1254;59246;-86
2023/05/15 16:20:21;;;;;;;4.40;2.00;;;;;;;29.68;21.68;100422.17;108222;1253;60238;-83
2023/05/15 16:22:48;;;;;;;5.70;2.60;;;;;;;29.56;21.82;100424.40;108263;1254;65301;-84
2023/05/15 16:25:15;;;;;;;5.30;2.50;;;;;;;29.41;22.12;100423.40;108333;1254;73825;-84
2023/05/15 16:27:45;;;;;;;4.90;2.30;;;;;;;29.25;22.12;100421.55;108375;1254;73634;-85
2023/05/15 16:30:12;;;;;;;4.80;2.00;;;;;;;29.07;22.33;100424.78;108363;1254;60072;-85
2023/05/15 16:32:39;;;;;;;4.70;1.90;;;;;;;28.89;22.71;100420.65;108375;1256;60290;-84
2023/05/15 16:35:07;;;;;;;4.60;2.20;;;;;;;28.74;22.91;100425.36;108380;1253;73615;-85
2023/05/15 16:37:34;;;;;;;6.60;2.00;;;;;;;28.56;23.25;100425.32;108347;1254;72645;-84
2023/05/15 16:40:02;;;;;;;5.10;1.90;;;;;;;28.37;23.53;100425.96;108334;1257;73574;-84
2023/05/15 16:42:36;;;;;;;4.90;2.10;;;;;;;28.19;23.78;100425.02;108330;1254;61581;-86
2023/05/15 16:45:04;;;;;;;6.00;2.30;;;;;;;27.97;24.24;100429.14;108314;1253;60263;-86
2023/05/15 16:47:31;;;;;;;6.40;2.50;;;;;;;27.76;24.73;100428.61;108311;1253;72953;-86
2023/05/15 16:49:58;;;;;;;5.70;3.20;;;;;;;27.59;24.69;100425.05;108330;1254;73839;-86
2023/05/15 16:52:25;;;;;;;5.70;3.10;;;;;;;27.46;24.81;100427.48;108262;1254;73487;-86